sensor_id;sensor_type;location;lat;lon;timestamp;pressure;altitude;pressure_sealevel;temperature;humidity
5679;BME280;2862;52.560;13.566;2023-01-31T00:03:23;100398.47;;;3.82;81.18
5679;BME280;2862;52.560;13.566;2023-01-31T00:13:27;100407.44;;;3.79;80.87
5679;BME280;2862;52.560;13.566;2023-01-31T00:23:31;100419.19;;;3.45;82.57
5679;BME280;2862;52.560;13.566;2023-01-31T00:33:36;100430.88;;;3.55;82.89
5679;BME280;2862;52.560;13.566;2023-01-31T00:43:39;100437.69;;;3.59;83.04
5679;BME280;2862;52.560;13.566;2023-01-31T00:53:45;100469.84;;;3.67;82.65
5679;BME280;2862;52.560;13.566;2023-01-31T01:03:49;100485.34;;;3.73;81.96
5679;BME280;2862;52.560;13.566;2023-01-31T01:13:54;100498.22;;;3.80;81.66
5679;BME280;2862;52.560;13.566;2023-01-31T01:23:59;100512.63;;;3.74;82.07
5679;BME280;2862;52.560;13.566;2023-01-31T01:34:05;100502.47;;;3.66;82.49
5679;BME280;2862;52.560;13.566;2023-01-31T01:44:41;100519.09;;;3.84;81.64
5679;BME280;2862;52.560;13.566;2023-01-31T01:54:51;100529.34;;;3.75;81.57
5679;BME280;2862;52.560;13.566;2023-01-31T02:04:58;100552.34;;;3.88;81.13
5679;BME280;2862;52.560;13.566;2023-01-31T02:15:02;100556.69;;;3.89;80.40
5679;BME280;2862;52.560;13.566;2023-01-31T02:25:41;100592.84;;;3.89;80.90
5679;BME280;2862;52.560;13.566;2023-01-31T02:35:57;100609.00;;;3.84;81.88
5679;BME280;2862;52.560;13.566;2023-01-31T02:46:07;100625.19;;;3.78;82.32
5679;BME280;2862;52.560;13.566;2023-01-31T02:56:18;100613.34;;;3.85;82.09
5679;BME280;2862;52.560;13.566;2023-01-31T03:06:49;100602.94;;;3.82;82.16
5679;BME280;2862;52.560;13.566;2023-01-31T03:17:09;100606.13;;;3.57;83.89
5679;BME280;2862;52.560;13.566;2023-01-31T03:27:33;100619.50;;;3.23;84.74
5679;BME280;2862;52.560;13.566;2023-01-31T03:37:46;100636.88;;;3.11;85.49
5679;BME280;2862;52.560;13.566;2023-01-31T03:47:55;100641.94;;;2.98;87.39
5679;BME280;2862;52.560;13.566;2023-01-31T03:58:02;100648.72;;;2.86;87.56
5679;BME280;2862;52.560;13.566;2023-01-31T04:08:07;100651.84;;;2.77;88.42
5679;BME280;2862;52.560;13.566;2023-01-31T04:18:13;100657.59;;;2.68;88.67
5679;BME280;2862;52.560;13.566;2023-01-31T04:28:17;100661.50;;;2.61;89.34
5679;BME280;2862;52.560;13.566;2023-01-31T04:38:21;100663.13;;;2.63;89.89
5679;BME280;2862;52.560;13.566;2023-01-31T04:48:24;100697.75;;;2.57;91.48
5679;BME280;2862;52.560;13.566;2023-01-31T04:58:30;100721.97;;;2.48;92.03
5679;BME280;2862;52.560;13.566;2023-01-31T05:08:34;100723.03;;;2.44;93.51
5679;BME280;2862;52.560;13.566;2023-01-31T05:18:38;100723.47;;;2.54;93.54
5679;BME280;2862;52.560;13.566;2023-01-31T05:28:42;100722.66;;;2.52;94.14
5679;BME280;2862;52.560;13.566;2023-01-31T05:38:46;100734.63;;;2.59;94.37
5679;BME280;2862;52.560;13.566;2023-01-31T05:48:51;100734.16;;;2.68;94.17
5679;BME280;2862;52.560;13.566;2023-01-31T05:58:56;100726.72;;;2.76;94.70
5679;BME280;2862;52.560;13.566;2023-01-31T06:08:59;100725.59;;;2.98;94.24
5679;BME280;2862;52.560;13.566;2023-01-31T06:19:03;100724.09;;;3.09;94.72
5679;BME280;2862;52.560;13.566;2023-01-31T06:29:07;100741.72;;;3.26;93.90
5679;BME280;2862;52.560;13.566;2023-01-31T06:39:13;100765.56;;;3.42;93.12
5679;BME280;2862;52.560;13.566;2023-01-31T06:49:16;100769.56;;;3.49;92.99
5679;BME280;2862;52.560;13.566;2023-01-31T06:59:20;100766.88;;;3.51;93.26
5679;BME280;2862;52.560;13.566;2023-01-31T07:09:23;100752.38;;;3.58;92.95
5679;BME280;2862;52.560;13.566;2023-01-31T07:19:27;100758.94;;;3.66;93.36
5679;BME280;2862;52.560;13.566;2023-01-31T07:29:30;100740.66;;;3.79;93.62
5679;BME280;2862;52.560;13.566;2023-01-31T07:39:35;100750.09;;;3.83;94.75
5679;BME280;2862;52.560;13.566;2023-01-31T07:49:38;100755.03;;;3.89;95.18
5679;BME280;2862;52.560;13.566;2023-01-31T07:59:42;100747.59;;;4.43;96.75
5679;BME280;2862;52.560;13.566;2023-01-31T08:09:46;100746.34;;;4.95;95.96
5679;BME280;2862;52.560;13.566;2023-01-31T08:19:52;100743.56;;;5.55;89.57
5679;BME280;2862;52.560;13.566;2023-01-31T08:29:54;100741.94;;;4.65;95.28
5679;BME280;2862;52.560;13.566;2023-01-31T08:39:59;100727.06;;;4.17;100.00
5679;BME280;2862;52.560;13.566;2023-01-31T08:50:02;100727.19;;;4.30;100.00
5679;BME280;2862;52.560;13.566;2023-01-31T09:00:08;100726.53;;;4.42;100.00
5679;BME280;2862;52.560;13.566;2023-01-31T09:10:11;100726.34;;;4.45;98.66
5679;BME280;2862;52.560;13.566;2023-01-31T09:20:15;100702.16;;;4.51;98.60
5679;BME280;2862;52.560;13.566;2023-01-31T09:30:19;100699.88;;;4.45;97.69
5679;BME280;2862;52.560;13.566;2023-01-31T09:40:27;100687.22;;;4.50;96.41
5679;BME280;2862;52.560;13.566;2023-01-31T09:50:35;100672.94;;;4.52;95.52
5679;BME280;2862;52.560;13.566;2023-01-31T10:00:46;100654.44;;;4.67;95.15
5679;BME280;2862;52.560;13.566;2023-01-31T10:10:53;100648.03;;;4.85;93.21
5679;BME280;2862;52.560;13.566;2023-01-31T10:21:09;100641.34;;;4.94;92.23
5679;BME280;2862;52.560;13.566;2023-01-31T10:31:20;100608.38;;;5.12;91.16
5679;BME280;2862;52.560;13.566;2023-01-31T10:41:37;100592.94;;;5.04;91.52
5679;BME280;2862;52.560;13.566;2023-01-31T10:52:05;100572.63;;;5.05;91.09
5679;BME280;2862;52.560;13.566;2023-01-31T11:02:18;100548.25;;;5.27;91.92
5679;BME280;2862;52.560;13.566;2023-01-31T11:12:39;100532.72;;;5.35;91.34
5679;BME280;2862;52.560;13.566;2023-01-31T11:22:44;100508.84;;;5.35;91.43
5679;BME280;2862;52.560;13.566;2023-01-31T11:32:47;100483.78;;;5.26;91.21
5679;BME280;2862;52.560;13.566;2023-01-31T11:42:53;100464.94;;;5.31;91.49
5679;BME280;2862;52.560;13.566;2023-01-31T11:52:57;100457.00;;;5.44;91.55
5679;BME280;2862;52.560;13.566;2023-01-31T12:03:04;100423.25;;;5.33;92.06
5679;BME280;2862;52.560;13.566;2023-01-31T12:13:15;100374.28;;;5.39;91.82
5679;BME280;2862;52.560;13.566;2023-01-31T12:23:26;100352.31;;;5.24;95.36
5679;BME280;2862;52.560;13.566;2023-01-31T12:33:40;100338.50;;;5.06;99.89
5679;BME280;2862;52.560;13.566;2023-01-31T12:44:17;100312.81;;;4.94;100.00
5679;BME280;2862;52.560;13.566;2023-01-31T12:54:37;100306.81;;;4.65;100.00
5679;BME280;2862;52.560;13.566;2023-01-31T13:04:48;100294.97;;;4.70;100.00
5679;BME280;2862;52.560;13.566;2023-01-31T13:14:57;100276.69;;;4.53;100.00
5679;BME280;2862;52.560;13.566;2023-01-31T13:25:15;100257.44;;;4.37;100.00
5679;BME280;2862;52.560;13.566;2023-01-31T13:35:23;100250.44;;;4.36;100.00
5679;BME280;2862;52.560;13.566;2023-01-31T13:45:31;100249.09;;;4.43;100.00
5679;BME280;2862;52.560;13.566;2023-01-31T13:55:37;100231.41;;;4.43;100.00
5679;BME280;2862;52.560;13.566;2023-01-31T14:05:55;100221.69;;;4.44;100.00
5679;BME280;2862;52.560;13.566;2023-01-31T14:15:59;100229.47;;;4.33;100.00
5679;BME280;2862;52.560;13.566;2023-01-31T14:26:31;100210.72;;;4.36;100.00
5679;BME280;2862;52.560;13.566;2023-01-31T14:36:48;100206.75;;;4.43;100.00
5679;BME280;2862;52.560;13.566;2023-01-31T14:47:07;100193.31;;;4.46;100.00
5679;BME280;2862;52.560;13.566;2023-01-31T14:57:16;100191.59;;;4.45;100.00
5679;BME280;2862;52.560;13.566;2023-01-31T15:07:22;100188.38;;;4.54;100.00
5679;BME280;2862;52.560;13.566;2023-01-31T15:17:28;100167.50;;;4.62;100.00
5679;BME280;2862;52.560;13.566;2023-01-31T15:27:40;100162.75;;;4.67;100.00
5679;BME280;2862;52.560;13.566;2023-01-31T15:37:45;100161.69;;;4.70;100.00
5679;BME280;2862;52.560;13.566;2023-01-31T15:48:01;100168.91;;;4.80;100.00
5679;BME280;2862;52.560;13.566;2023-01-31T15:58:05;100143.25;;;4.81;100.00
5679;BME280;2862;52.560;13.566;2023-01-31T16:08:19;100141.78;;;4.90;100.00
5679;BME280;2862;52.560;13.566;2023-01-31T16:18:24;100143.81;;;4.99;100.00
5679;BME280;2862;52.560;13.566;2023-01-31T16:28:29;100147.19;;;5.01;100.00
5679;BME280;2862;52.560;13.566;2023-01-31T16:38:39;100163.91;;;5.14;100.00
5679;BME280;2862;52.560;13.566;2023-01-31T16:48:59;100146.84;;;5.18;100.00
5679;BME280;2862;52.560;13.566;2023-01-31T16:59:04;100126.06;;;5.25;100.00
5679;BME280;2862;52.560;13.566;2023-01-31T17:09:14;100107.94;;;5.31;100.00
5679;BME280;2862;52.560;13.566;2023-01-31T17:19:18;100121.28;;;5.30;100.00
5679;BME280;2862;52.560;13.566;2023-01-31T17:29:23;100095.63;;;5.30;100.00
5679;BME280;2862;52.560;13.566;2023-01-31T17:39:29;100080.69;;;5.29;100.00
5679;BME280;2862;52.560;13.566;2023-01-31T17:49:33;100075.16;;;5.32;100.00
5679;BME280;2862;52.560;13.566;2023-01-31T17:59:40;100046.81;;;5.46;100.00
5679;BME280;2862;52.560;13.566;2023-01-31T18:09:44;100031.44;;;5.51;100.00
5679;BME280;2862;52.560;13.566;2023-01-31T18:19:47;100026.41;;;5.59;100.00
5679;BME280;2862;52.560;13.566;2023-01-31T18:29:51;100023.78;;;5.70;100.00
5679;BME280;2862;52.560;13.566;2023-01-31T18:39:56;99985.81;;;5.70;100.00
5679;BME280;2862;52.560;13.566;2023-01-31T18:50:00;99999.47;;;5.76;100.00
5679;BME280;2862;52.560;13.566;2023-01-31T19:00:05;99989.84;;;5.86;100.00
5679;BME280;2862;52.560;13.566;2023-01-31T19:10:10;99990.44;;;5.90;100.00
5679;BME280;2862;52.560;13.566;2023-01-31T19:20:12;100081.22;;;5.58;100.00
5679;BME280;2862;52.560;13.566;2023-01-31T19:30:17;100039.16;;;4.42;100.00
5679;BME280;2862;52.560;13.566;2023-01-31T19:40:20;100037.44;;;4.41;100.00
5679;BME280;2862;52.560;13.566;2023-01-31T19:50:23;100055.78;;;4.32;100.00
5679;BME280;2862;52.560;13.566;2023-01-31T20:00:26;100041.47;;;4.34;100.00
5679;BME280;2862;52.560;13.566;2023-01-31T20:10:30;100083.25;;;4.29;100.00
5679;BME280;2862;52.560;13.566;2023-01-31T20:20:33;100067.50;;;4.28;100.00
5679;BME280;2862;52.560;13.566;2023-01-31T20:30:38;100092.94;;;4.30;100.00
5679;BME280;2862;52.560;13.566;2023-01-31T20:40:41;100099.47;;;4.24;100.00
5679;BME280;2862;52.560;13.566;2023-01-31T20:50:54;100111.63;;;4.14;100.00
5679;BME280;2862;52.560;13.566;2023-01-31T21:00:57;100117.09;;;4.11;100.00
5679;BME280;2862;52.560;13.566;2023-01-31T21:11:06;100144.09;;;4.16;100.00
5679;BME280;2862;52.560;13.566;2023-01-31T21:21:12;100156.03;;;4.36;100.00
5679;BME280;2862;52.560;13.566;2023-01-31T21:31:18;100166.34;;;4.53;100.00
5679;BME280;2862;52.560;13.566;2023-01-31T21:41:22;100194.94;;;4.61;98.66
5679;BME280;2862;52.560;13.566;2023-01-31T21:51:43;100194.03;;;4.08;100.00
5679;BME280;2862;52.560;13.566;2023-01-31T22:01:46;100169.81;;;3.46;100.00
5679;BME280;2862;52.560;13.566;2023-01-31T22:11:50;100178.78;;;3.29;100.00
5679;BME280;2862;52.560;13.566;2023-01-31T22:21:55;100180.38;;;3.17;100.00
5679;BME280;2862;52.560;13.566;2023-01-31T22:31:59;100173.78;;;3.10;100.00
5679;BME280;2862;52.560;13.566;2023-01-31T22:42:02;100171.72;;;3.15;100.00
5679;BME280;2862;52.560;13.566;2023-01-31T22:52:07;100162.63;;;3.19;100.00
5679;BME280;2862;52.560;13.566;2023-01-31T23:02:09;100157.44;;;3.32;100.00
5679;BME280;2862;52.560;13.566;2023-01-31T23:12:13;100168.78;;;3.34;100.00
5679;BME280;2862;52.560;13.566;2023-01-31T23:22:16;100186.97;;;3.67;100.00
5679;BME280;2862;52.560;13.566;2023-01-31T23:32:20;100173.25;;;3.75;100.00
5679;BME280;2862;52.560;13.566;2023-01-31T23:42:24;100161.81;;;3.75;100.00
5679;BME280;2862;52.560;13.566;2023-01-31T23:52:28;100164.06;;;3.81;100.00
